sensor_id;sensor_type;location;lat;lon;timestamp;temperature;humidity
70336;SHT31;57756;47.408;18.940;2023-09-07T00:01:49;17.51;79.13
70336;SHT31;57756;47.408;18.940;2023-09-07T00:04:14;17.51;79.46
70336;SHT31;57756;47.408;18.940;2023-09-07T00:06:40;17.49;79.49
70336;SHT31;57756;47.408;18.940;2023-09-07T00:09:09;17.52;79.91
70336;SHT31;57756;47.408;18.940;2023-09-07T00:11:36;17.48;79.49
70336;SHT31;57756;47.408;18.940;2023-09-07T00:14:01;17.51;79.15
70336;SHT31;57756;47.408;18.940;2023-09-07T00:16:27;17.53;79.01
70336;SHT31;57756;47.408;18.940;2023-09-07T00:18:53;17.51;78.81
70336;SHT31;57756;47.408;18.940;2023-09-07T00:21:18;17.53;78.70
70336;SHT31;57756;47.408;18.940;2023-09-07T00:23:44;17.56;78.69
70336;SHT31;57756;47.408;18.940;2023-09-07T00:26:09;17.56;78.42
70336;SHT31;57756;47.408;18.940;2023-09-07T00:28:37;17.58;78.88
70336;SHT31;57756;47.408;18.940;2023-09-07T00:31:03;17.55;78.38
70336;SHT31;57756;47.408;18.940;2023-09-07T00:33:29;17.55;78.31
70336;SHT31;57756;47.408;18.940;2023-09-07T00:35:54;17.56;78.38
70336;SHT31;57756;47.408;18.940;2023-09-07T00:38:19;17.59;78.83
70336;SHT31;57756;47.408;18.940;2023-09-07T00:40:45;17.58;79.03
70336;SHT31;57756;47.408;18.940;2023-09-07T00:43:11;17.52;79.28
70336;SHT31;57756;47.408;18.940;2023-09-07T00:45:38;17.48;79.75
70336;SHT31;57756;47.408;18.940;2023-09-07T00:48:04;17.43;79.62
70336;SHT31;57756;47.408;18.940;2023-09-07T00:50:30;17.42;80.16
70336;SHT31;57756;47.408;18.940;2023-09-07T00:52:55;17.39;80.22
70336;SHT31;57756;47.408;18.940;2023-09-07T00:55:21;17.30;81.05
70336;SHT31;57756;47.408;18.940;2023-09-07T00:57:47;17.28;81.14
70336;SHT31;57756;47.408;18.940;2023-09-07T01:00:13;17.22;81.46
70336;SHT31;57756;47.408;18.940;2023-09-07T01:02:39;17.15;82.03
70336;SHT31;57756;47.408;18.940;2023-09-07T01:05:05;17.12;81.72
70336;SHT31;57756;47.408;18.940;2023-09-07T01:07:41;17.06;82.19
70336;SHT31;57756;47.408;18.940;2023-09-07T01:10:08;16.99;82.40
70336;SHT31;57756;47.408;18.940;2023-09-07T01:12:33;16.95;82.63
70336;SHT31;57756;47.408;18.940;2023-09-07T01:14:59;16.88;82.57
70336;SHT31;57756;47.408;18.940;2023-09-07T01:17:25;16.83;82.95
70336;SHT31;57756;47.408;18.940;2023-09-07T01:19:52;16.81;83.05
70336;SHT31;57756;47.408;18.940;2023-09-07T01:22:19;16.77;83.18
70336;SHT31;57756;47.408;18.940;2023-09-07T01:24:48;16.74;83.07
70336;SHT31;57756;47.408;18.940;2023-09-07T01:27:14;16.66;83.77
70336;SHT31;57756;47.408;18.940;2023-09-07T01:29:40;16.67;83.48
70336;SHT31;57756;47.408;18.940;2023-09-07T01:32:06;16.57;83.87
70336;SHT31;57756;47.408;18.940;2023-09-07T01:34:32;16.56;83.94
70336;SHT31;57756;47.408;18.940;2023-09-07T01:36:57;16.51;84.04
70336;SHT31;57756;47.408;18.940;2023-09-07T01:39:23;16.48;83.95
70336;SHT31;57756;47.408;18.940;2023-09-07T01:41:48;16.48;84.17
70336;SHT31;57756;47.408;18.940;2023-09-07T01:44:14;16.45;83.81
70336;SHT31;57756;47.408;18.940;2023-09-07T01:46:39;16.44;84.04
70336;SHT31;57756;47.408;18.940;2023-09-07T01:49:05;16.48;84.43
70336;SHT31;57756;47.408;18.940;2023-09-07T01:51:30;16.45;84.61
70336;SHT31;57756;47.408;18.940;2023-09-07T01:53:55;16.46;84.26
70336;SHT31;57756;47.408;18.940;2023-09-07T01:56:21;16.44;83.63
70336;SHT31;57756;47.408;18.940;2023-09-07T01:58:46;16.46;84.02
70336;SHT31;57756;47.408;18.940;2023-09-07T02:01:24;16.44;83.04
70336;SHT31;57756;47.408;18.940;2023-09-07T02:03:51;16.42;83.47
70336;SHT31;57756;47.408;18.940;2023-09-07T02:06:16;16.42;83.93
70336;SHT31;57756;47.408;18.940;2023-09-07T02:08:41;16.42;83.24
70336;SHT31;57756;47.408;18.940;2023-09-07T02:11:07;16.41;83.12
70336;SHT31;57756;47.408;18.940;2023-09-07T02:13:32;16.42;82.75
70336;SHT31;57756;47.408;18.940;2023-09-07T02:15:58;16.41;82.47
70336;SHT31;57756;47.408;18.940;2023-09-07T02:18:23;16.41;82.44
70336;SHT31;57756;47.408;18.940;2023-09-07T02:20:49;16.41;82.16
70336;SHT31;57756;47.408;18.940;2023-09-07T02:23:14;16.41;82.21
70336;SHT31;57756;47.408;18.940;2023-09-07T02:25:40;16.41;81.87
70336;SHT31;57756;47.408;18.940;2023-09-07T02:28:06;16.41;81.65
70336;SHT31;57756;47.408;18.940;2023-09-07T02:30:32;16.41;83.00
70336;SHT31;57756;47.408;18.940;2023-09-07T02:32:57;16.42;83.08
70336;SHT31;57756;47.408;18.940;2023-09-07T02:35:22;16.39;83.45
70336;SHT31;57756;47.408;18.940;2023-09-07T02:37:48;16.39;83.00
70336;SHT31;57756;47.408;18.940;2023-09-07T02:40:13;16.38;81.93
70336;SHT31;57756;47.408;18.940;2023-09-07T02:42:41;16.36;81.99
70336;SHT31;57756;47.408;18.940;2023-09-07T02:45:10;16.35;82.04
70336;SHT31;57756;47.408;18.940;2023-09-07T02:47:35;16.33;81.70
70336;SHT31;57756;47.408;18.940;2023-09-07T02:50:01;16.33;81.88
70336;SHT31;57756;47.408;18.940;2023-09-07T02:52:26;16.35;81.94
70336;SHT31;57756;47.408;18.940;2023-09-07T02:54:52;16.35;82.02
70336;SHT31;57756;47.408;18.940;2023-09-07T02:57:17;16.33;81.99
70336;SHT31;57756;47.408;18.940;2023-09-07T02:59:43;16.30;81.85
70336;SHT31;57756;47.408;18.940;2023-09-07T03:02:08;16.33;81.80
70336;SHT31;57756;47.408;18.940;2023-09-07T03:04:34;16.30;82.08
70336;SHT31;57756;47.408;18.940;2023-09-07T03:07:01;16.30;82.58
70336;SHT31;57756;47.408;18.940;2023-09-07T03:09:27;16.32;82.48
70336;SHT31;57756;47.408;18.940;2023-09-07T03:11:52;16.26;82.01
70336;SHT31;57756;47.408;18.940;2023-09-07T03:14:17;16.29;81.77
70336;SHT31;57756;47.408;18.940;2023-09-07T03:16:43;16.22;82.10
70336;SHT31;57756;47.408;18.940;2023-09-07T03:19:08;16.19;82.40
70336;SHT31;57756;47.408;18.940;2023-09-07T03:21:34;16.22;82.92
70336;SHT31;57756;47.408;18.940;2023-09-07T03:24:00;16.18;83.07
70336;SHT31;57756;47.408;18.940;2023-09-07T03:26:25;16.14;82.84
70336;SHT31;57756;47.408;18.940;2023-09-07T03:28:50;16.15;82.54
70336;SHT31;57756;47.408;18.940;2023-09-07T03:31:17;16.12;82.37
70336;SHT31;57756;47.408;18.940;2023-09-07T03:33:42;16.11;82.15
70336;SHT31;57756;47.408;18.940;2023-09-07T03:36:08;16.08;82.59
70336;SHT31;57756;47.408;18.940;2023-09-07T03:38:34;16.08;82.40
70336;SHT31;57756;47.408;18.940;2023-09-07T03:41:00;16.05;82.46
70336;SHT31;57756;47.408;18.940;2023-09-07T03:43:25;16.02;82.58
70336;SHT31;57756;47.408;18.940;2023-09-07T03:45:51;16.01;82.30
70336;SHT31;57756;47.408;18.940;2023-09-07T03:48:16;16.04;82.51
70336;SHT31;57756;47.408;18.940;2023-09-07T03:50:42;16.04;82.13
70336;SHT31;57756;47.408;18.940;2023-09-07T03:53:07;15.98;82.67
70336;SHT31;57756;47.408;18.940;2023-09-07T03:55:43;16.00;82.43
70336;SHT31;57756;47.408;18.940;2023-09-07T03:58:10;16.01;82.56
70336;SHT31;57756;47.408;18.940;2023-09-07T04:00:38;16.01;82.33
70336;SHT31;57756;47.408;18.940;2023-09-07T04:03:04;16.00;82.68
70336;SHT31;57756;47.408;18.940;2023-09-07T04:05:31;15.97;82.17
70336;SHT31;57756;47.408;18.940;2023-09-07T04:07:56;15.98;82.62
70336;SHT31;57756;47.408;18.940;2023-09-07T04:10:22;16.00;83.02
70336;SHT31;57756;47.408;18.940;2023-09-07T04:12:48;15.98;82.57
70336;SHT31;57756;47.408;18.940;2023-09-07T04:15:13;16.00;82.18
70336;SHT31;57756;47.408;18.940;2023-09-07T04:17:39;16.01;82.10
70336;SHT31;57756;47.408;18.940;2023-09-07T04:20:07;16.02;81.57
70336;SHT31;57756;47.408;18.940;2023-09-07T04:22:33;16.05;81.92
70336;SHT31;57756;47.408;18.940;2023-09-07T04:24:58;16.04;81.91
70336;SHT31;57756;47.408;18.940;2023-09-07T04:27:24;16.08;81.88
70336;SHT31;57756;47.408;18.940;2023-09-07T04:29:49;16.07;82.18
70336;SHT31;57756;47.408;18.940;2023-09-07T04:32:15;16.05;82.17
70336;SHT31;57756;47.408;18.940;2023-09-07T04:34:40;16.08;82.21
70336;SHT31;57756;47.408;18.940;2023-09-07T04:37:06;16.07;81.87
70336;SHT31;57756;47.408;18.940;2023-09-07T04:39:31;16.07;82.15
70336;SHT31;57756;47.408;18.940;2023-09-07T04:41:57;16.09;82.36
70336;SHT31;57756;47.408;18.940;2023-09-07T04:44:22;16.14;82.66
70336;SHT31;57756;47.408;18.940;2023-09-07T04:46:47;16.14;82.52
70336;SHT31;57756;47.408;18.940;2023-09-07T04:49:13;16.14;82.91
70336;SHT31;57756;47.408;18.940;2023-09-07T04:51:39;16.21;83.84
70336;SHT31;57756;47.408;18.940;2023-09-07T04:54:04;16.22;83.38
70336;SHT31;57756;47.408;18.940;2023-09-07T04:56:30;16.28;82.99
70336;SHT31;57756;47.408;18.940;2023-09-07T04:58:55;16.35;83.28
70336;SHT31;57756;47.408;18.940;2023-09-07T05:01:21;16.41;82.68
70336;SHT31;57756;47.408;18.940;2023-09-07T05:03:46;16.55;83.28
70336;SHT31;57756;47.408;18.940;2023-09-07T05:06:12;16.66;83.72
70336;SHT31;57756;47.408;18.940;2023-09-07T05:08:37;16.84;82.76
70336;SHT31;57756;47.408;18.940;2023-09-07T05:11:03;17.03;83.27
70336;SHT31;57756;47.408;18.940;2023-09-07T05:13:29;17.22;82.29
70336;SHT31;57756;47.408;18.940;2023-09-07T05:15:56;17.62;82.23
70336;SHT31;57756;47.408;18.940;2023-09-07T05:18:22;17.83;79.92
70336;SHT31;57756;47.408;18.940;2023-09-07T05:20:48;18.14;81.47
70336;SHT31;57756;47.408;18.940;2023-09-07T05:23:21;18.38;78.13
70336;SHT31;57756;47.408;18.940;2023-09-07T05:25:48;18.72;77.62
70336;SHT31;57756;47.408;18.940;2023-09-07T05:28:14;18.98;76.63
70336;SHT31;57756;47.408;18.940;2023-09-07T05:30:41;19.20;75.64
70336;SHT31;57756;47.408;18.940;2023-09-07T05:33:09;19.41;74.49
70336;SHT31;57756;47.408;18.940;2023-09-07T05:35:34;19.55;73.92
70336;SHT31;57756;47.408;18.940;2023-09-07T05:38:00;19.81;72.41
70336;SHT31;57756;47.408;18.940;2023-09-07T05:40:25;20.08;73.09
70336;SHT31;57756;47.408;18.940;2023-09-07T05:42:51;20.24;72.38
70336;SHT31;57756;47.408;18.940;2023-09-07T05:45:16;20.44;72.20
70336;SHT31;57756;47.408;18.940;2023-09-07T05:47:42;20.65;71.61
70336;SHT31;57756;47.408;18.940;2023-09-07T05:50:08;20.85;70.92
70336;SHT31;57756;47.408;18.940;2023-09-07T05:52:33;21.05;68.77
70336;SHT31;57756;47.408;18.940;2023-09-07T05:54:58;21.19;67.86
70336;SHT31;57756;47.408;18.940;2023-09-07T05:57:24;21.46;69.05
70336;SHT31;57756;47.408;18.940;2023-09-07T05:59:49;21.58;67.47
70336;SHT31;57756;47.408;18.940;2023-09-07T06:02:15;21.78;68.27
70336;SHT31;57756;47.408;18.940;2023-09-07T06:04:40;21.95;67.43
70336;SHT31;57756;47.408;18.940;2023-09-07T06:07:06;22.11;66.92
70336;SHT31;57756;47.408;18.940;2023-09-07T06:09:31;22.28;66.51
70336;SHT31;57756;47.408;18.940;2023-09-07T06:11:56;22.39;65.40
70336;SHT31;57756;47.408;18.940;2023-09-07T06:14:22;22.55;66.29
70336;SHT31;57756;47.408;18.940;2023-09-07T06:16:47;22.71;64.75
70336;SHT31;57756;47.408;18.940;2023-09-07T06:19:13;22.89;63.85
70336;SHT31;57756;47.408;18.940;2023-09-07T06:21:38;23.08;65.01
70336;SHT31;57756;47.408;18.940;2023-09-07T06:24:04;23.29;64.35
70336;SHT31;57756;47.408;18.940;2023-09-07T06:26:31;23.58;65.14
70336;SHT31;57756;47.408;18.940;2023-09-07T06:28:57;23.75;62.52
70336;SHT31;57756;47.408;18.940;2023-09-07T06:31:22;24.06;63.95
70336;SHT31;57756;47.408;18.940;2023-09-07T06:33:48;24.40;63.31
70336;SHT31;57756;47.408;18.940;2023-09-07T06:36:13;24.65;62.55
70336;SHT31;57756;47.408;18.940;2023-09-07T06:38:39;24.72;61.51
70336;SHT31;57756;47.408;18.940;2023-09-07T06:41:04;24.96;62.53
70336;SHT31;57756;47.408;18.940;2023-09-07T06:43:32;25.16;60.92
70336;SHT31;57756;47.408;18.940;2023-09-07T06:46:08;25.44;60.92
70336;SHT31;57756;47.408;18.940;2023-09-07T06:48:34;25.57;60.22
70336;SHT31;57756;47.408;18.940;2023-09-07T06:51:03;25.91;60.63
70336;SHT31;57756;47.408;18.940;2023-09-07T06:53:29;26.22;59.46
70336;SHT31;57756;47.408;18.940;2023-09-07T06:55:59;26.10;59.07
70336;SHT31;57756;47.408;18.940;2023-09-07T06:58:25;25.86;59.94
70336;SHT31;57756;47.408;18.940;2023-09-07T07:00:50;26.20;59.67
70336;SHT31;57756;47.408;18.940;2023-09-07T07:03:15;26.26;59.42
70336;SHT31;57756;47.408;18.940;2023-09-07T07:05:41;26.25;58.98
70336;SHT31;57756;47.408;18.940;2023-09-07T07:08:07;26.19;59.36
70336;SHT31;57756;47.408;18.940;2023-09-07T07:10:33;26.02;59.17
70336;SHT31;57756;47.408;18.940;2023-09-07T07:12:58;26.58;58.61
70336;SHT31;57756;47.408;18.940;2023-09-07T07:15:25;26.64;58.39
70336;SHT31;57756;47.408;18.940;2023-09-07T07:17:50;26.70;58.15
70336;SHT31;57756;47.408;18.940;2023-09-07T07:20:16;26.63;57.76
70336;SHT31;57756;47.408;18.940;2023-09-07T07:22:41;27.28;60.03
70336;SHT31;57756;47.408;18.940;2023-09-07T07:25:07;26.57;58.33
70336;SHT31;57756;47.408;18.940;2023-09-07T07:27:33;26.73;58.63
70336;SHT31;57756;47.408;18.940;2023-09-07T07:29:59;27.11;58.35
70336;SHT31;57756;47.408;18.940;2023-09-07T07:32:24;27.54;58.04
70336;SHT31;57756;47.408;18.940;2023-09-07T07:34:50;27.87;56.21
70336;SHT31;57756;47.408;18.940;2023-09-07T07:37:15;28.04;56.15
70336;SHT31;57756;47.408;18.940;2023-09-07T07:39:41;28.44;56.30
70336;SHT31;57756;47.408;18.940;2023-09-07T07:42:06;28.41;55.57
70336;SHT31;57756;47.408;18.940;2023-09-07T07:44:31;27.88;56.63
70336;SHT31;57756;47.408;18.940;2023-09-07T07:46:57;28.44;56.45
70336;SHT31;57756;47.408;18.940;2023-09-07T07:49:22;28.49;56.01
70336;SHT31;57756;47.408;18.940;2023-09-07T07:51:48;28.07;55.43
70336;SHT31;57756;47.408;18.940;2023-09-07T07:54:13;28.07;55.98
70336;SHT31;57756;47.408;18.940;2023-09-07T07:56:39;28.48;55.01
70336;SHT31;57756;47.408;18.940;2023-09-07T07:59:05;28.69;55.20
70336;SHT31;57756;47.408;18.940;2023-09-07T08:01:30;28.84;54.85
70336;SHT31;57756;47.408;18.940;2023-09-07T08:03:55;29.15;55.63
70336;SHT31;57756;47.408;18.940;2023-09-07T08:06:21;28.84;54.55
70336;SHT31;57756;47.408;18.940;2023-09-07T08:08:47;29.12;54.58
70336;SHT31;57756;47.408;18.940;2023-09-07T08:11:12;29.44;54.35
70336;SHT31;57756;47.408;18.940;2023-09-07T08:13:39;29.78;54.09
70336;SHT31;57756;47.408;18.940;2023-09-07T08:16:05;29.62;53.37
70336;SHT31;57756;47.408;18.940;2023-09-07T08:18:33;29.82;53.29
70336;SHT31;57756;47.408;18.940;2023-09-07T08:20:59;29.41;54.38
70336;SHT31;57756;47.408;18.940;2023-09-07T08:23:25;29.82;53.36
70336;SHT31;57756;47.408;18.940;2023-09-07T08:25:51;29.82;52.71
70336;SHT31;57756;47.408;18.940;2023-09-07T08:28:17;29.63;53.06
70336;SHT31;57756;47.408;18.940;2023-09-07T08:30:43;30.10;53.57
70336;SHT31;57756;47.408;18.940;2023-09-07T08:33:09;30.23;52.26
70336;SHT31;57756;47.408;18.940;2023-09-07T08:35:34;30.07;52.89
70336;SHT31;57756;47.408;18.940;2023-09-07T08:38:01;30.78;52.44
70336;SHT31;57756;47.408;18.940;2023-09-07T08:40:30;30.72;51.58
70336;SHT31;57756;47.408;18.940;2023-09-07T08:42:59;30.83;51.82
70336;SHT31;57756;47.408;18.940;2023-09-07T08:45:30;30.40;51.22
70336;SHT31;57756;47.408;18.940;2023-09-07T08:47:58;30.92;50.94
70336;SHT31;57756;47.408;18.940;2023-09-07T08:50:24;31.19;50.74
70336;SHT31;57756;47.408;18.940;2023-09-07T08:52:52;31.36;49.78
70336;SHT31;57756;47.408;18.940;2023-09-07T08:55:18;31.68;50.52
70336;SHT31;57756;47.408;18.940;2023-09-07T08:57:44;31.82;50.54
70336;SHT31;57756;47.408;18.940;2023-09-07T09:00:10;31.61;48.54
70336;SHT31;57756;47.408;18.940;2023-09-07T09:02:42;31.98;49.18
70336;SHT31;57756;47.408;18.940;2023-09-07T09:05:09;31.85;48.36
70336;SHT31;57756;47.408;18.940;2023-09-07T09:07:34;32.28;47.88
70336;SHT31;57756;47.408;18.940;2023-09-07T09:10:07;32.29;47.83
70336;SHT31;57756;47.408;18.940;2023-09-07T09:12:34;32.56;48.14
70336;SHT31;57756;47.408;18.940;2023-09-07T09:15:00;32.21;47.66
70336;SHT31;57756;47.408;18.940;2023-09-07T09:17:28;32.25;47.94
70336;SHT31;57756;47.408;18.940;2023-09-07T09:19:53;32.09;47.83
70336;SHT31;57756;47.408;18.940;2023-09-07T09:22:19;32.87;47.64
70336;SHT31;57756;47.408;18.940;2023-09-07T09:24:47;32.59;46.58
70336;SHT31;57756;47.408;18.940;2023-09-07T09:27:13;32.73;46.54
70336;SHT31;57756;47.408;18.940;2023-09-07T09:29:39;31.61;47.30
70336;SHT31;57756;47.408;18.940;2023-09-07T09:32:06;31.86;47.11
70336;SHT31;57756;47.408;18.940;2023-09-07T09:34:35;31.95;47.71
70336;SHT31;57756;47.408;18.940;2023-09-07T09:37:02;32.48;46.54
70336;SHT31;57756;47.408;18.940;2023-09-07T09:39:29;32.74;46.16
70336;SHT31;57756;47.408;18.940;2023-09-07T09:41:55;32.53;46.42
70336;SHT31;57756;47.408;18.940;2023-09-07T09:44:22;32.78;45.48
70336;SHT31;57756;47.408;18.940;2023-09-07T09:46:53;33.08;45.77
70336;SHT31;57756;47.408;18.940;2023-09-07T09:49:21;32.83;46.35
70336;SHT31;57756;47.408;18.940;2023-09-07T09:51:48;32.87;46.53
70336;SHT31;57756;47.408;18.940;2023-09-07T09:54:16;33.07;45.26
70336;SHT31;57756;47.408;18.940;2023-09-07T09:56:42;33.10;44.66
70336;SHT31;57756;47.408;18.940;2023-09-07T09:59:07;33.69;44.75
70336;SHT31;57756;47.408;18.940;2023-09-07T10:01:47;33.19;45.55
70336;SHT31;57756;47.408;18.940;2023-09-07T10:04:15;33.25;45.28
70336;SHT31;57756;47.408;18.940;2023-09-07T10:06:54;33.32;45.06
70336;SHT31;57756;47.408;18.940;2023-09-07T10:09:20;34.17;45.27
70336;SHT31;57756;47.408;18.940;2023-09-07T10:11:53;33.36;44.07
70336;SHT31;57756;47.408;18.940;2023-09-07T10:14:20;33.63;44.92
70336;SHT31;57756;47.408;18.940;2023-09-07T10:16:47;34.21;44.83
70336;SHT31;57756;47.408;18.940;2023-09-07T10:19:23;33.21;44.00
70336;SHT31;57756;47.408;18.940;2023-09-07T10:21:54;32.86;44.43
70336;SHT31;57756;47.408;18.940;2023-09-07T10:24:28;33.01;44.59
70336;SHT31;57756;47.408;18.940;2023-09-07T10:27:04;33.18;43.94
70336;SHT31;57756;47.408;18.940;2023-09-07T10:29:44;33.94;44.98
70336;SHT31;57756;47.408;18.940;2023-09-07T10:32:10;34.17;42.46
70336;SHT31;57756;47.408;18.940;2023-09-07T10:34:38;33.08;44.44
70336;SHT31;57756;47.408;18.940;2023-09-07T10:37:05;33.97;43.89
70336;SHT31;57756;47.408;18.940;2023-09-07T10:39:34;34.06;42.71
70336;SHT31;57756;47.408;18.940;2023-09-07T10:41:59;34.28;42.57
70336;SHT31;57756;47.408;18.940;2023-09-07T10:44:26;34.27;42.55
70336;SHT31;57756;47.408;18.940;2023-09-07T10:46:51;34.20;43.96
70336;SHT31;57756;47.408;18.940;2023-09-07T10:49:18;33.76;42.88
70336;SHT31;57756;47.408;18.940;2023-09-07T10:51:45;33.46;43.15
70336;SHT31;57756;47.408;18.940;2023-09-07T10:54:21;33.89;43.36
70336;SHT31;57756;47.408;18.940;2023-09-07T10:56:48;32.97;43.93
70336;SHT31;57756;47.408;18.940;2023-09-07T10:59:15;33.36;43.49
70336;SHT31;57756;47.408;18.940;2023-09-07T11:01:43;33.62;42.37
70336;SHT31;57756;47.408;18.940;2023-09-07T11:04:09;33.89;43.30
70336;SHT31;57756;47.408;18.940;2023-09-07T11:06:37;34.03;42.99
70336;SHT31;57756;47.408;18.940;2023-09-07T11:09:03;33.66;43.02
70336;SHT31;57756;47.408;18.940;2023-09-07T11:11:31;33.41;42.70
70336;SHT31;57756;47.408;18.940;2023-09-07T11:13:58;33.94;44.48
70336;SHT31;57756;47.408;18.940;2023-09-07T11:16:25;33.62;43.55
70336;SHT31;57756;47.408;18.940;2023-09-07T11:18:52;32.97;43.24
70336;SHT31;57756;47.408;18.940;2023-09-07T11:21:19;33.35;45.28
70336;SHT31;57756;47.408;18.940;2023-09-07T11:23:45;33.03;44.20
70336;SHT31;57756;47.408;18.940;2023-09-07T11:26:10;32.96;45.64
70336;SHT31;57756;47.408;18.940;2023-09-07T11:28:37;32.33;45.14
70336;SHT31;57756;47.408;18.940;2023-09-07T11:31:03;32.08;45.09
70336;SHT31;57756;47.408;18.940;2023-09-07T11:33:32;32.11;44.88
70336;SHT31;57756;47.408;18.940;2023-09-07T11:35:58;32.35;45.10
70336;SHT31;57756;47.408;18.940;2023-09-07T11:38:28;32.84;44.18
70336;SHT31;57756;47.408;18.940;2023-09-07T11:40:54;32.64;45.02
70336;SHT31;57756;47.408;18.940;2023-09-07T11:43:20;32.33;44.75
70336;SHT31;57756;47.408;18.940;2023-09-07T11:45:46;32.04;45.43
70336;SHT31;57756;47.408;18.940;2023-09-07T11:48:12;31.74;45.16
70336;SHT31;57756;47.408;18.940;2023-09-07T11:50:38;31.68;44.85
70336;SHT31;57756;47.408;18.940;2023-09-07T11:53:05;31.65;46.13
70336;SHT31;57756;47.408;18.940;2023-09-07T11:55:31;31.80;44.76
70336;SHT31;57756;47.408;18.940;2023-09-07T11:57:56;32.05;45.66
70336;SHT31;57756;47.408;18.940;2023-09-07T12:00:23;31.95;45.48
70336;SHT31;57756;47.408;18.940;2023-09-07T12:02:48;31.94;44.95
70336;SHT31;57756;47.408;18.940;2023-09-07T12:05:14;32.08;44.10
70336;SHT31;57756;47.408;18.940;2023-09-07T12:07:42;31.88;45.07
70336;SHT31;57756;47.408;18.940;2023-09-07T12:10:11;32.08;44.96
70336;SHT31;57756;47.408;18.940;2023-09-07T12:12:37;31.54;45.60
70336;SHT31;57756;47.408;18.940;2023-09-07T12:15:03;31.00;44.39
70336;SHT31;57756;47.408;18.940;2023-09-07T12:17:30;31.04;45.76
70336;SHT31;57756;47.408;18.940;2023-09-07T12:19:55;30.95;45.16
70336;SHT31;57756;47.408;18.940;2023-09-07T12:22:21;30.75;46.02
70336;SHT31;57756;47.408;18.940;2023-09-07T12:24:46;30.45;45.25
70336;SHT31;57756;47.408;18.940;2023-09-07T12:27:12;30.38;45.76
70336;SHT31;57756;47.408;18.940;2023-09-07T12:29:37;30.71;46.94
70336;SHT31;57756;47.408;18.940;2023-09-07T12:32:03;30.65;46.60
70336;SHT31;57756;47.408;18.940;2023-09-07T12:34:29;30.61;46.30
70336;SHT31;57756;47.408;18.940;2023-09-07T12:36:54;30.27;46.83
70336;SHT31;57756;47.408;18.940;2023-09-07T12:39:20;30.16;45.50
70336;SHT31;57756;47.408;18.940;2023-09-07T12:41:45;30.05;47.52
70336;SHT31;57756;47.408;18.940;2023-09-07T12:44:10;30.02;46.81
70336;SHT31;57756;47.408;18.940;2023-09-07T12:46:36;30.14;46.02
70336;SHT31;57756;47.408;18.940;2023-09-07T12:49:02;29.97;46.24
70336;SHT31;57756;47.408;18.940;2023-09-07T12:51:28;29.78;47.62
70336;SHT31;57756;47.408;18.940;2023-09-07T12:53:53;30.02;46.89
70336;SHT31;57756;47.408;18.940;2023-09-07T12:56:19;29.70;46.34
70336;SHT31;57756;47.408;18.940;2023-09-07T12:58:44;29.61;47.36
70336;SHT31;57756;47.408;18.940;2023-09-07T13:01:10;29.68;48.25
70336;SHT31;57756;47.408;18.940;2023-09-07T13:03:37;29.96;48.36
70336;SHT31;57756;47.408;18.940;2023-09-07T13:06:03;29.93;47.78
70336;SHT31;57756;47.408;18.940;2023-09-07T13:08:28;29.76;47.38
70336;SHT31;57756;47.408;18.940;2023-09-07T13:10:55;29.41;47.29
70336;SHT31;57756;47.408;18.940;2023-09-07T13:13:20;29.35;48.48
70336;SHT31;57756;47.408;18.940;2023-09-07T13:15:47;29.39;48.04
70336;SHT31;57756;47.408;18.940;2023-09-07T13:18:13;29.10;47.24
70336;SHT31;57756;47.408;18.940;2023-09-07T13:20:39;29.22;47.68
70336;SHT31;57756;47.408;18.940;2023-09-07T13:23:04;29.10;47.80
70336;SHT31;57756;47.408;18.940;2023-09-07T13:25:31;29.30;47.81
70336;SHT31;57756;47.408;18.940;2023-09-07T13:27:57;29.30;48.30
70336;SHT31;57756;47.408;18.940;2023-09-07T13:30:22;29.06;48.21
70336;SHT31;57756;47.408;18.940;2023-09-07T13:32:48;29.10;47.62
70336;SHT31;57756;47.408;18.940;2023-09-07T13:35:15;29.22;47.11
70336;SHT31;57756;47.408;18.940;2023-09-07T13:37:40;29.08;46.93
70336;SHT31;57756;47.408;18.940;2023-09-07T13:40:06;28.89;46.80
70336;SHT31;57756;47.408;18.940;2023-09-07T13:42:33;28.93;47.05
70336;SHT31;57756;47.408;18.940;2023-09-07T13:44:58;29.04;46.65
70336;SHT31;57756;47.408;18.940;2023-09-07T13:47:24;29.04;46.68
70336;SHT31;57756;47.408;18.940;2023-09-07T13:49:49;28.86;47.01
70336;SHT31;57756;47.408;18.940;2023-09-07T13:52:15;28.79;48.61
70336;SHT31;57756;47.408;18.940;2023-09-07T13:54:40;28.87;48.65
70336;SHT31;57756;47.408;18.940;2023-09-07T13:57:06;28.84;48.69
70336;SHT31;57756;47.408;18.940;2023-09-07T13:59:31;28.84;47.13
70336;SHT31;57756;47.408;18.940;2023-09-07T14:02:00;28.79;46.77
70336;SHT31;57756;47.408;18.940;2023-09-07T14:04:26;28.62;47.51
70336;SHT31;57756;47.408;18.940;2023-09-07T14:06:52;28.62;47.75
70336;SHT31;57756;47.408;18.940;2023-09-07T14:09:17;28.67;47.14
70336;SHT31;57756;47.408;18.940;2023-09-07T14:11:43;28.59;47.32
70336;SHT31;57756;47.408;18.940;2023-09-07T14:14:10;28.65;48.94
70336;SHT31;57756;47.408;18.940;2023-09-07T14:16:35;28.53;48.09
70336;SHT31;57756;47.408;18.940;2023-09-07T14:19:01;28.51;48.21
70336;SHT31;57756;47.408;18.940;2023-09-07T14:21:26;28.45;47.59
70336;SHT31;57756;47.408;18.940;2023-09-07T14:23:52;28.42;47.39
70336;SHT31;57756;47.408;18.940;2023-09-07T14:26:17;28.39;48.78
70336;SHT31;57756;47.408;18.940;2023-09-07T14:28:43;28.39;49.15
70336;SHT31;57756;47.408;18.940;2023-09-07T14:31:08;28.29;48.22
70336;SHT31;57756;47.408;18.940;2023-09-07T14:33:34;28.29;48.64
70336;SHT31;57756;47.408;18.940;2023-09-07T14:36:06;28.32;49.18
70336;SHT31;57756;47.408;18.940;2023-09-07T14:38:32;28.34;49.44
70336;SHT31;57756;47.408;18.940;2023-09-07T14:41:00;28.26;47.72
70336;SHT31;57756;47.408;18.940;2023-09-07T14:43:26;28.15;47.71
70336;SHT31;57756;47.408;18.940;2023-09-07T14:45:51;28.11;48.09
70336;SHT31;57756;47.408;18.940;2023-09-07T14:48:17;28.14;48.03
70336;SHT31;57756;47.408;18.940;2023-09-07T14:50:42;28.14;48.14
70336;SHT31;57756;47.408;18.940;2023-09-07T14:53:08;28.05;47.54
70336;SHT31;57756;47.408;18.940;2023-09-07T14:55:33;28.08;47.96
70336;SHT31;57756;47.408;18.940;2023-09-07T14:57:58;28.02;49.34
70336;SHT31;57756;47.408;18.940;2023-09-07T15:00:24;28.00;48.95
70336;SHT31;57756;47.408;18.940;2023-09-07T15:02:52;28.02;47.92
70336;SHT31;57756;47.408;18.940;2023-09-07T15:05:18;28.04;48.04
70336;SHT31;57756;47.408;18.940;2023-09-07T15:07:43;28.01;47.44
70336;SHT31;57756;47.408;18.940;2023-09-07T15:10:09;27.96;48.00